»·PEaware :: IOZZC KVNY-KSNA

IOZZC :: KVNY-KSNA

FLIGHT INFORMATION

Flight Status: Arrived
Operator: Unknown
More flights by this operator :: More flights under this callsign
Pilot: Anonymous 15639 (15639)
Aircraft: Unknown
(P06T)
More flights by this aircraft type
Origin: KVNY Van Nuys
United States
Destination: KSNA John Wayne-Orange Co
United States
More flights between these airports :: More routes between these airports
Route: +ADAMM2 ADAMM V186 BAYJY V363 POXKU V8 SLI
File this flight plan on PilotEdge
Remarks: TEC route BURN20
Altitude:
(Current/Filed)
5,000ft
Speed:
(Current/Filed)
145kts
Departed: 09-Jan-18 04:21 PM
Arrived: 09-Jan-18 04:54 PM
Distance/Time
Traveled:
44nm/0:33
Distance/Time
To Go:
Arrived

Flight Plot

Page will automatically refresh every two minutes.


Map Options




Map Legend


Flown Route
Filed Route
Departure Airport
Arrival Airport
Navaid (VOR, NDB)
Fix

Horizontal Profiles

Position Reports

Time Latitude Longitude Heading Altitude Ground
Speed
09-Jan-18 16:01 34.211372 -118.492023 0 804ft 0kts
09-Jan-18 16:02 34.211372 -118.492023 88 804ft 0kts
09-Jan-18 16:03 34.211372 -118.492023 88 804ft 0kts
09-Jan-18 16:04 34.211372 -118.492023 88 804ft 0kts
09-Jan-18 16:05 34.211372 -118.492023 88 804ft 0kts
09-Jan-18 16:06 34.211372 -118.492023 89 804ft 0kts
09-Jan-18 16:07 34.211372 -118.492023 89 804ft 0kts
09-Jan-18 16:08 34.211372 -118.492023 89 804ft 0kts
09-Jan-18 16:09 34.211372 -118.492023 89 804ft 0kts
09-Jan-18 16:10 34.211372 -118.492023 89 804ft 0kts
09-Jan-18 16:11 34.211372 -118.492023 89 804ft 0kts
09-Jan-18 16:12 34.211372 -118.492023 88 804ft 0kts
09-Jan-18 16:13 34.211372 -118.492023 88 804ft 0kts
09-Jan-18 16:14 34.211372 -118.492023 88 804ft 0kts
09-Jan-18 16:15 34.211372 -118.492023 88 804ft 0kts
09-Jan-18 16:16 34.211372 -118.492023 88 804ft 0kts
09-Jan-18 16:17 34.211372 -118.492023 88 804ft 0kts
09-Jan-18 16:18 34.211372 -118.492023 88 804ft 0kts
09-Jan-18 16:19 34.211658 -118.491715 354 804ft 5kts
09-Jan-18 16:20 34.213805 -118.491909 354 804ft 8kts
09-Jan-18 16:21 34.216069 -118.492185 359 804ft 8kts
09-Jan-18 16:22 34.218313 -118.492320 355 804ft 6kts
09-Jan-18 16:23 34.218698 -118.492196 58 804ft 0kts
09-Jan-18 16:24 34.218698 -118.492196 58 804ft 0kts
09-Jan-18 16:25 34.218698 -118.492196 58 804ft 0kts
09-Jan-18 16:26 34.218698 -118.492196 58 804ft 0kts
09-Jan-18 16:27 34.216619 -118.490978 176 804ft 61kts
09-Jan-18 16:28 34.193257 -118.489440 174 1683ft 102kts
09-Jan-18 16:29 34.172698 -118.470091 125 2301ft 97kts
09-Jan-18 16:30 34.156916 -118.443313 125 2902ft 100kts
09-Jan-18 16:31 34.141536 -118.416172 125 3996ft 98kts
09-Jan-18 16:32 34.126628 -118.388189 125 4944ft 105kts
09-Jan-18 16:33 34.108031 -118.352530 125 4975ft 136kts
09-Jan-18 16:34 34.107070 -118.307394 78 4973ft 148kts
09-Jan-18 16:35 34.117869 -118.259284 78 4979ft 149kts
09-Jan-18 16:36 34.128594 -118.211504 78 4987ft 149kts
09-Jan-18 16:37 34.122983 -118.164964 114 4994ft 143kts
09-Jan-18 16:38 34.109853 -118.119600 113 5001ft 143kts
09-Jan-18 16:39 34.096391 -118.074435 114 4998ft 143kts
09-Jan-18 16:40 34.082654 -118.029652 113 5002ft 142kts
09-Jan-18 16:41 34.068925 -117.984979 113 5003ft 141kts
09-Jan-18 16:42 34.055368 -117.940943 113 5003ft 139kts
09-Jan-18 16:43 34.041844 -117.897078 113 5002ft 139kts
09-Jan-18 16:44 34.028403 -117.853547 113 5001ft 138kts
09-Jan-18 16:45 34.015002 -117.810197 113 4999ft 138kts
09-Jan-18 16:46 33.987567 -117.786296 173 4995ft 135kts
09-Jan-18 16:47 33.949001 -117.784396 177 4418ft 145kts
09-Jan-18 16:48 33.910626 -117.772909 160 3598ft 139kts
09-Jan-18 16:49 33.874836 -117.758671 160 2983ft 124kts
09-Jan-18 16:50 33.845434 -117.747459 160 2983ft 101kts
09-Jan-18 16:51 33.822627 -117.753052 260 2989ft 108kts
09-Jan-18 16:52 33.813120 -117.782244 200 2916ft 98kts
09-Jan-18 16:53 33.788890 -117.797027 202 2427ft 95kts
09-Jan-18 16:54 33.768601 -117.809880 202 1985ft 77kts
09-Jan-18 16:55 33.749659 -117.821914 203 1567ft 76kts
09-Jan-18 16:56 33.731109 -117.833696 204 1160ft 74kts
09-Jan-18 16:57 33.714527 -117.844212 204 801ft 59kts
09-Jan-18 16:58 33.699709 -117.853615 204 483ft 60kts
09-Jan-18 16:59 33.684779 -117.863108 204 164ft 60kts
09-Jan-18 17:00 33.675870 -117.869624 296 60ft 7kts
09-Jan-18 17:01 33.675974 -117.870949 307 60ft 10kts
09-Jan-18 17:02 33.675997 -117.871317 220 60ft 0kts
09-Jan-18 17:03 33.675997 -117.871317 220 60ft 0kts
09-Jan-18 17:04 33.675997 -117.871317 220 60ft 0kts
09-Jan-18 17:05 33.675997 -117.871317 220 60ft 0kts

Navigation Log

Ident Type
Flight plan parsing failed, navigation log unavailable